Time;durP1;ratioP1;P1;durP2;ratioP2;P2;SDS_P1;SDS_P2;PMS_P1;PMS_P2;Temp;Humidity;BMP_temperature;BMP_pressure;BME280_temperature;BME280_humidity;BME280_pressure;Samples;Min_cycle;Max_cycle;Signal;HPM_P1;HPM_P2
2020/12/09 00:04:05;;;;;;;56.13;30.37;;;3.90;99.90;;;;;;10333642;28;20756;-78
2020/12/09 00:09:27;;;;;;;48.93;29.83;;;3.70;99.90;;;;;;10334781;28;20195;-78
2020/12/09 00:14:49;;;;;;;60.17;31.57;;;4.00;99.90;;;;;;10332886;28;20218;-78
2020/12/09 00:20:10;;;;;;;62.37;34.47;;;4.10;99.90;;;;;;10332824;28;20191;-78
2020/12/09 00:25:33;;;;;;;63.13;34.00;;;4.00;99.90;;;;;;10332749;28;20222;-78
2020/12/09 00:30:55;;;;;;;63.70;35.13;;;4.00;99.90;;;;;;10332840;28;20195;-78
2020/12/09 00:36:17;;;;;;;60.67;32.70;;;4.00;99.90;;;;;;10332221;28;20227;-78
2020/12/09 00:41:40;;;;;;;60.40;32.23;;;3.90;99.90;;;;;;10331424;28;20211;-78
2020/12/09 00:47:01;;;;;;;58.03;31.40;;;3.80;99.90;;;;;;10331548;28;20228;-79
2020/12/09 00:52:23;;;;;;;61.20;31.73;;;3.80;99.90;;;;;;10331355;28;20235;-78
2020/12/09 00:57:46;;;;;;;62.90;32.63;;;3.70;99.90;;;;;;10330882;28;20197;-78
2020/12/09 01:03:07;;;;;;;58.97;29.93;;;3.60;99.90;;;;;;10331686;28;20213;-78
2020/12/09 01:08:29;;;;;;;59.87;31.90;;;3.60;99.90;;;;;;10331077;28;20205;-78
2020/12/09 01:13:51;;;;;;;60.57;30.33;;;3.60;99.90;;;;;;10331122;28;20214;-78
2020/12/09 01:19:13;;;;;;;55.80;31.13;;;3.70;99.90;;;;;;10331597;28;20212;-78
2020/12/09 01:24:35;;;;;;;58.73;31.50;;;3.70;99.90;;;;;;10330656;28;20228;-78
2020/12/09 01:29:57;;;;;;;62.07;31.33;;;3.70;99.90;;;;;;10330799;28;20657;-78
2020/12/09 01:35:19;;;;;;;61.40;30.67;;;3.80;99.90;;;;;;10330740;28;20224;-79
2020/12/09 01:40:41;;;;;;;57.17;30.40;;;3.80;99.90;;;;;;10331747;28;20193;-78
2020/12/09 01:46:03;;;;;;;57.63;29.83;;;3.80;99.90;;;;;;10330782;28;20211;-78
2020/12/09 01:51:26;;;;;;;58.67;29.77;;;3.80;99.90;;;;;;10331087;28;20192;-78
2020/12/09 01:57:06;;;;;;;62.90;31.30;;;3.80;99.90;;;;;;10330347;28;20599;-78
2020/12/09 02:02:28;;;;;;;58.97;30.40;;;3.90;99.90;;;;;;10331084;28;20225;-78
2020/12/09 02:07:50;;;;;;;63.27;31.57;;;3.90;99.90;;;;;;10329984;28;20565;-78
2020/12/09 02:13:12;;;;;;;63.33;30.87;;;4.00;99.90;;;;;;10330072;28;20229;-78
2020/12/09 02:18:34;;;;;;;70.00;34.10;;;4.10;99.90;;;;;;10330805;28;20197;-78
2020/12/09 02:23:58;;;;;;;67.37;33.27;;;4.00;99.90;;;;;;10336029;28;20226;-78
2020/12/09 02:29:19;;;;;;;67.60;33.10;;;3.90;99.90;;;;;;10297110;28;20198;-78
2020/12/09 02:34:41;;;;;;;62.20;31.53;;;4.00;99.90;;;;;;10297768;28;20232;-78
2020/12/09 02:40:04;;;;;;;69.30;33.70;;;4.10;99.90;;;;;;10321644;28;20213;-78
2020/12/09 02:45:26;;;;;;;66.47;33.70;;;4.10;99.90;;;;;;10330540;28;20677;-78
2020/12/09 02:50:47;;;;;;;72.70;34.73;;;4.10;99.90;;;;;;10301539;28;20194;-78
2020/12/09 02:56:10;;;;;;;70.77;34.47;;;4.20;99.90;;;;;;10335457;28;20783;-78
2020/12/09 03:01:35;;;;;;;78.53;35.53;;;4.30;99.90;;;;;;10336196;28;20207;-78
2020/12/09 03:06:56;;;;;;;76.17;35.10;;;4.20;99.90;;;;;;10336673;28;20191;-78
2020/12/09 03:12:19;;;;;;;87.13;38.27;;;4.20;99.90;;;;;;10309231;28;20605;-78
2020/12/09 03:17:41;;;;;;;72.07;33.80;;;4.10;99.90;;;;;;10315955;28;20190;-78
2020/12/09 03:23:02;;;;;;;75.53;37.23;;;4.30;99.90;;;;;;10375105;28;20276;-78
2020/12/09 03:28:25;;;;;;;77.03;36.53;;;4.40;99.90;;;;;;10373666;28;20198;-78
2020/12/09 03:33:47;;;;;;;74.73;36.57;;;4.40;99.90;;;;;;10339348;28;20219;-78
2020/12/09 03:39:08;;;;;;;73.17;34.50;;;4.40;99.90;;;;;;10334207;28;20195;-78
2020/12/09 03:44:31;;;;;;;71.57;34.27;;;4.60;99.90;;;;;;10333088;28;20215;-78
2020/12/09 03:49:53;;;;;;;71.03;32.70;;;4.50;99.90;;;;;;10333711;28;20665;-78
2020/12/09 03:55:14;;;;;;;60.03;31.07;;;4.60;99.90;;;;;;10331901;28;20234;-78
2020/12/09 04:00:37;;;;;;;70.77;33.97;;;4.70;99.90;;;;;;10333373;28;20198;-79
2020/12/09 04:05:58;;;;;;;65.80;34.83;;;4.80;99.90;;;;;;10333162;28;20222;-79
2020/12/09 04:11:20;;;;;;;68.47;33.83;;;4.80;99.90;;;;;;10335867;28;20206;-80
2020/12/09 04:16:42;;;;;;;70.53;35.23;;;4.80;99.90;;;;;;10337762;28;20289;-79
2020/12/09 04:22:04;;;;;;;78.20;35.70;;;4.80;99.90;;;;;;10324535;28;20588;-79
2020/12/09 04:27:26;;;;;;;75.10;36.07;;;4.70;99.90;;;;;;10335155;28;20198;-79
2020/12/09 04:32:48;;;;;;;84.13;38.93;;;4.80;99.90;;;;;;10335210;28;20230;-79
2020/12/09 04:38:11;;;;;;;76.53;36.07;;;4.70;99.90;;;;;;10333687;28;20205;-80
2020/12/09 04:43:33;;;;;;;83.30;37.50;;;4.70;99.90;;;;;;10333684;28;20218;-79
2020/12/09 04:48:59;;;;;;;82.57;37.87;;;4.70;99.90;;;;;;10333955;28;20199;-79
2020/12/09 04:54:35;;;;;;;82.23;38.90;;;4.80;99.90;;;;;;10330355;28;20730;-79
2020/12/09 05:00:00;;;;;;;80.10;38.43;;;4.70;99.90;;;;;;10333739;28;20210;-79
2020/12/09 05:05:24;;;;;;;83.87;37.67;;;4.70;99.90;;;;;;10332474;28;20218;-79
2020/12/09 05:10:48;;;;;;;84.90;37.83;;;4.90;99.90;;;;;;10325707;28;20203;-79
2020/12/09 05:16:16;;;;;;;80.20;38.60;;;4.80;99.90;;;;;;10315205;28;20227;-79
2020/12/09 05:21:47;;;;;;;86.33;38.17;;;4.80;99.90;;;;;;10332753;28;20230;-79
2020/12/09 05:27:09;;;;;;;83.87;39.60;;;4.80;99.90;;;;;;10331825;28;20210;-79
2020/12/09 05:32:31;;;;;;;81.37;37.53;;;4.90;99.90;;;;;;10331588;28;20230;-79
2020/12/09 05:38:10;;;;;;;89.23;39.60;;;4.80;99.90;;;;;;10331646;28;20203;-79
2020/12/09 05:43:31;;;;;;;79.23;37.60;;;4.70;99.90;;;;;;10332910;28;20211;-80
2020/12/09 05:48:53;;;;;;;95.43;40.77;;;4.80;99.90;;;;;;10328550;28;20203;-78
2020/12/09 05:54:26;;;;;;;88.53;39.33;;;4.80;99.90;;;;;;10332728;28;20227;-79
2020/12/09 05:59:49;;;;;;;99.73;40.07;;;4.70;99.90;;;;;;10329814;28;20203;-81
2020/12/09 06:05:11;;;;;;;90.50;39.37;;;4.50;99.90;;;;;;10344372;28;20223;-81
2020/12/09 06:10:33;;;;;;;91.00;38.87;;;4.50;99.90;;;;;;10341203;28;20209;-78
2020/12/09 06:15:55;;;;;;;83.93;37.67;;;4.60;99.90;;;;;;10323884;28;20600;-78
2020/12/09 06:21:17;;;;;;;84.67;35.73;;;4.70;99.90;;;;;;10326486;28;20211;-79
2020/12/09 06:26:40;;;;;;;81.43;35.93;;;4.60;99.90;;;;;;10327839;28;20584;-81
2020/12/09 06:32:04;;;;;;;81.47;35.03;;;4.70;99.90;;;;;;10337764;28;20230;-76
2020/12/09 06:37:26;;;;;;;82.68;42.95;;;4.60;99.90;;;;;;10319749;28;20432;-77
2020/12/09 06:43:05;;;;;;;69.83;34.10;;;4.70;99.90;;;;;;10295728;28;20215;-75
2020/12/09 06:48:38;;;;;;;77.77;33.80;;;4.70;99.90;;;;;;10295394;28;20196;-77
2020/12/09 06:54:11;;;;;;;71.60;31.97;;;4.90;99.90;;;;;;10299507;28;20223;-75
2020/12/09 06:59:35;;;;;;;68.37;33.27;;;4.80;99.90;;;;;;10294845;28;20223;-76
2020/12/09 07:05:05;;;;;;;67.43;33.10;;;4.90;99.90;;;;;;10333192;28;20211;-76
2020/12/09 07:10:29;;;;;;;66.33;32.90;;;4.90;99.90;;;;;;10333950;28;20234;-76
2020/12/09 07:15:53;;;;;;;73.20;35.30;;;4.90;99.90;;;;;;10324152;28;20230;-76
2020/12/09 07:21:15;;;;;;;65.63;32.20;;;4.90;99.90;;;;;;10343300;28;20210;-76
2020/12/09 07:26:36;;;;;;;65.97;33.43;;;4.80;99.90;;;;;;10332541;28;20593;-75
2020/12/09 07:32:01;;;;;;;74.63;34.43;;;4.90;99.90;;;;;;10333857;28;20222;-75
2020/12/09 07:37:25;;;;;;;67.30;33.87;;;5.00;99.90;;;;;;10334378;28;20218;-76
2020/12/09 07:42:46;;;;;;;65.73;33.27;;;4.90;99.90;;;;;;10333990;28;20233;-75
2020/12/09 07:48:11;;;;;;;65.07;32.17;;;4.90;99.90;;;;;;10333901;28;20600;-76
2020/12/09 07:53:32;;;;;;;55.37;30.70;;;5.00;99.90;;;;;;10310537;28;20231;-76
2020/12/09 07:58:55;;;;;;;60.27;32.13;;;4.80;99.90;;;;;;10293547;28;20198;-76
2020/12/09 08:04:26;;;;;;;60.87;30.57;;;4.70;99.90;;;;;;10293161;28;20653;-76
2020/12/09 08:10:08;;;;;;;54.57;28.70;;;4.80;99.90;;;;;;10294723;28;20196;-76
2020/12/09 08:15:30;;;;;;;58.10;28.60;;;4.70;99.90;;;;;;10332027;28;20218;-76
2020/12/09 08:20:54;;;;;;;58.03;29.47;;;4.70;99.90;;;;;;10331839;28;20691;-75
2020/12/09 08:26:29;;;;;;;56.60;29.10;;;4.80;99.90;;;;;;10292548;28;20184;-75
2020/12/09 08:32:01;;;;;;;59.60;29.83;;;4.80;99.90;;;;;;10330498;28;20230;-76
2020/12/09 08:37:24;;;;;;;57.00;29.00;;;4.80;99.90;;;;;;10329676;28;20792;-77
2020/12/09 08:42:58;;;;;;;52.63;27.47;;;4.80;99.90;;;;;;10332501;28;20669;-76
2020/12/09 08:48:20;;;;;;;56.57;30.33;;;4.60;99.90;;;;;;10332167;28;20677;-76
2020/12/09 08:53:43;;;;;;;55.77;30.73;;;4.70;99.90;;;;;;10330604;28;20218;-76
2020/12/09 08:59:04;;;;;;;51.57;27.73;;;4.70;99.90;;;;;;10330656;28;20565;-74
2020/12/09 09:04:31;;;;;;;51.53;26.70;;;4.80;99.90;;;;;;10320226;28;20716;-75
2020/12/09 09:09:53;;;;;;;48.20;27.73;;;4.90;99.90;;;;;;10330245;28;20187;-75
2020/12/09 09:15:15;;;;;;;45.97;26.77;;;5.00;99.90;;;;;;10330296;28;20207;-75
2020/12/09 09:20:37;;;;;;;49.50;26.23;;;4.80;99.90;;;;;;10364483;28;20661;-75
2020/12/09 09:26:00;;;;;;;46.13;25.30;;;4.90;99.90;;;;;;10368948;28;20218;-76
2020/12/09 09:31:21;;;;;;;48.33;25.60;;;5.10;99.90;;;;;;10367110;28;20197;-75
2020/12/09 09:36:44;;;;;;;48.37;26.33;;;5.10;99.90;;;;;;10360357;28;20230;-74
2020/12/09 09:42:06;;;;;;;47.90;25.90;;;4.90;99.90;;;;;;10331151;28;20249;-74
2020/12/09 09:47:28;;;;;;;44.67;25.17;;;5.00;99.90;;;;;;10330584;28;20195;-74
2020/12/09 09:52:50;;;;;;;48.73;26.83;;;4.90;99.90;;;;;;10329937;28;20599;-77
2020/12/09 09:58:12;;;;;;;48.30;27.33;;;4.70;99.90;;;;;;10330509;28;20203;-73
2020/12/09 10:03:34;;;;;;;49.47;26.23;;;4.90;99.90;;;;;;10298394;28;20681;-74
2020/12/09 10:08:55;;;;;;;55.27;27.83;;;4.90;99.90;;;;;;10318677;28;20246;-74
2020/12/09 10:14:18;;;;;;;47.87;28.10;;;4.80;99.90;;;;;;10329081;28;20222;-75
2020/12/09 10:19:40;;;;;;;49.70;26.70;;;5.00;99.90;;;;;;10355843;28;20210;-73
2020/12/09 10:25:01;;;;;;;54.57;28.37;;;4.90;99.90;;;;;;10342445;28;20218;-74
2020/12/09 10:30:24;;;;;;;51.33;28.23;;;4.90;99.90;;;;;;10329780;28;20206;-73
2020/12/09 10:35:45;;;;;;;53.97;29.27;;;5.10;99.90;;;;;;10330942;28;20219;-73
2020/12/09 10:41:10;;;;;;;48.93;28.17;;;5.30;99.90;;;;;;10337010;28;20198;-73
2020/12/09 10:46:34;;;;;;;57.60;28.90;;;4.90;99.90;;;;;;10335608;28;20198;-73
2020/12/09 10:51:56;;;;;;;51.57;28.03;;;4.70;99.90;;;;;;10336591;28;20211;-76
2020/12/09 10:57:18;;;;;;;57.93;28.10;;;4.70;99.90;;;;;;10336296;28;20222;-75
2020/12/09 11:02:40;;;;;;;54.23;29.47;;;4.90;99.90;;;;;;10376547;23;20245;-76
2020/12/09 11:08:02;;;;;;;48.83;27.37;;;5.40;99.90;;;;;;10376090;28;20205;-77
2020/12/09 11:13:23;;;;;;;58.40;30.10;;;5.10;99.90;;;;;;10335344;28;20221;-76
2020/12/09 11:18:46;;;;;;;53.13;27.60;;;5.10;99.90;;;;;;10376166;28;20583;-76
2020/12/09 11:24:08;;;;;;;54.27;30.17;;;5.20;99.90;;;;;;10414133;28;20197;-74
2020/12/09 11:29:30;;;;;;;51.67;28.27;;;5.20;99.90;;;;;;10414569;28;20210;-76
2020/12/09 11:34:53;;;;;;;54.37;29.10;;;5.20;99.90;;;;;;10333062;28;20289;-76
2020/12/09 11:40:15;;;;;;;61.17;29.90;;;5.10;99.90;;;;;;10361450;28;20214;-76
2020/12/09 11:45:37;;;;;;;53.23;28.27;;;5.00;99.90;;;;;;10383158;28;20574;-75
2020/12/09 11:51:00;;;;;;;55.03;27.60;;;5.00;99.90;;;;;;10361508;28;21630;-75
2020/12/09 11:56:23;;;;;;;54.67;29.00;;;5.30;99.90;;;;;;10363014;28;20594;-75
2020/12/09 12:01:44;;;;;;;52.93;28.47;;;5.20;99.90;;;;;;10379097;28;20263;-74
2020/12/09 12:07:07;;;;;;;53.87;30.30;;;5.20;99.90;;;;;;10371763;28;20652;-76
2020/12/09 12:12:28;;;;;;;52.33;30.00;;;5.10;99.90;;;;;;10331543;28;20218;-77
2020/12/09 12:17:50;;;;;;;63.23;31.37;;;5.30;99.90;;;;;;10358854;28;20198;-77
2020/12/09 12:23:13;;;;;;;54.53;29.20;;;5.30;99.90;;;;;;10350497;28;20229;-77
2020/12/09 12:28:35;;;;;;;60.00;30.43;;;5.30;99.90;;;;;;10370840;28;20234;-78
2020/12/09 12:33:57;;;;;;;54.10;28.73;;;5.40;99.90;;;;;;10395385;28;20221;-86
2020/12/09 12:39:19;;;;;;;56.33;29.47;;;5.50;99.90;;;;;;10394623;28;20205;-84
2020/12/09 12:44:41;;;;;;;62.23;30.40;;;5.60;99.90;;;;;;10377298;28;20201;-83
2020/12/09 12:50:03;;;;;;;55.80;30.43;;;5.40;99.90;;;;;;10401934;28;20659;-84
2020/12/09 12:55:26;;;;;;;63.03;30.77;;;5.50;99.90;;;;;;10399853;28;20218;-84
2020/12/09 13:00:48;;;;;;;59.13;30.10;;;5.70;99.90;;;;;;10371193;28;20226;-85
2020/12/09 13:06:10;;;;;;;52.27;27.00;;;5.50;99.90;;;;;;10401582;28;20186;-84
2020/12/09 13:11:32;;;;;;;51.47;27.23;;;5.30;99.90;;;;;;10362569;28;20210;-80
2020/12/09 13:16:54;;;;;;;56.40;28.50;;;5.30;99.90;;;;;;10401281;28;20278;-82
2020/12/09 13:22:16;;;;;;;56.90;28.50;;;5.60;99.90;;;;;;10436793;28;20217;-83
2020/12/09 13:27:39;;;;;;;47.63;26.67;;;5.60;99.90;;;;;;10435792;28;20193;-82
2020/12/09 13:33:02;;;;;;;53.63;29.23;;;5.60;99.90;;;;;;10390478;28;20226;-82
2020/12/09 13:38:24;;;;;;;56.27;28.80;;;5.50;99.90;;;;;;10359135;28;20203;-83
2020/12/09 13:43:47;;;;;;;52.60;26.80;;;5.50;99.90;;;;;;10375453;28;20218;-83
2020/12/09 13:49:09;;;;;;;55.40;28.30;;;5.30;99.90;;;;;;10375622;28;20206;-83
2020/12/09 13:54:31;;;;;;;62.03;28.33;;;5.20;99.90;;;;;;10397376;28;20216;-83
2020/12/09 13:59:54;;;;;;;59.00;27.40;;;5.20;99.90;;;;;;10402197;28;20571;-82
2020/12/09 14:05:15;;;;;;;55.20;26.97;;;5.20;99.90;;;;;;10404681;28;20199;-85
2020/12/09 14:10:37;;;;;;;57.03;27.70;;;5.10;99.90;;;;;;10396192;28;20210;-82
2020/12/09 14:16:00;;;;;;;52.93;27.37;;;5.20;99.90;;;;;;10393073;28;20306;-81
2020/12/09 14:21:22;;;;;;;55.60;25.50;;;5.20;99.90;;;;;;10397981;28;20225;-82
2020/12/09 14:26:44;;;;;;;57.93;27.27;;;5.10;99.90;;;;;;10405457;28;20261;-83
2020/12/09 14:32:07;;;;;;;49.40;26.40;;;5.10;99.90;;;;;;10412271;28;20226;-83
2020/12/09 14:37:30;;;;;;;52.90;26.13;;;5.20;99.90;;;;;;10409909;28;20218;-84
2020/12/09 14:42:53;;;;;;;55.50;26.70;;;5.20;99.90;;;;;;10403720;28;20277;-82
2020/12/09 14:48:15;;;;;;;54.43;26.37;;;5.00;99.90;;;;;;10386099;28;20195;-83
2020/12/09 14:53:38;;;;;;;56.17;28.13;;;5.00;99.90;;;;;;10377469;28;20222;-84
2020/12/09 14:59:00;;;;;;;59.40;28.37;;;5.10;99.90;;;;;;10405766;28;20198;-83
2020/12/09 15:04:25;;;;;;;59.63;28.70;;;5.30;99.90;;;;;;10444868;28;20679;-81
2020/12/09 15:09:47;;;;;;;55.87;27.90;;;5.40;99.90;;;;;;10406978;28;20591;-83
2020/12/09 15:15:09;;;;;;;50.63;26.37;;;5.30;99.90;;;;;;10428390;28;20582;-78
2020/12/09 15:20:31;;;;;;;51.00;26.63;;;5.20;99.90;;;;;;10395849;28;20282;-84
2020/12/09 15:25:53;;;;;;;51.73;26.10;;;5.20;99.90;;;;;;10386026;28;20198;-83
2020/12/09 15:31:16;;;;;;;52.67;26.57;;;5.20;99.90;;;;;;10428062;28;20217;-83
2020/12/09 15:36:38;;;;;;;52.07;26.63;;;5.20;99.90;;;;;;10429590;28;20266;-82
2020/12/09 15:42:00;;;;;;;55.07;28.33;;;5.20;99.90;;;;;;10391206;28;20214;-81
2020/12/09 15:47:22;;;;;;;55.07;26.97;;;5.10;99.90;;;;;;10391704;28;20198;-82
2020/12/09 15:52:45;;;;;;;61.30;29.17;;;5.20;99.90;;;;;;10391588;28;20282;-82
2020/12/09 15:58:06;;;;;;;53.17;27.03;;;5.10;99.90;;;;;;10374313;28;20668;-83
2020/12/09 16:03:28;;;;;;;47.53;25.47;;;5.00;99.90;;;;;;10393691;28;20226;-82
2020/12/09 16:08:50;;;;;;;58.87;28.60;;;5.00;99.90;;;;;;10394555;28;20220;-82
2020/12/09 16:14:12;;;;;;;54.53;28.50;;;5.00;99.90;;;;;;10393881;28;20671;-83
2020/12/09 16:19:35;;;;;;;63.03;30.97;;;5.00;99.90;;;;;;10391129;28;20222;-83
2020/12/09 16:24:57;;;;;;;63.33;30.63;;;5.10;99.90;;;;;;10381683;28;20198;-84
2020/12/09 16:30:19;;;;;;;64.07;31.17;;;5.10;99.90;;;;;;10385496;28;20217;-80
2020/12/09 16:35:41;;;;;;;60.83;30.50;;;5.10;99.90;;;;;;10361925;28;20777;-81
2020/12/09 16:41:04;;;;;;;59.13;28.20;;;5.10;99.90;;;;;;10402604;28;20587;-80
2020/12/09 16:46:26;;;;;;;62.10;30.27;;;5.00;99.90;;;;;;10391951;28;20202;-82
2020/12/09 16:51:48;;;;;;;61.23;28.17;;;5.10;99.90;;;;;;10394996;28;20249;-80
2020/12/09 16:57:11;;;;;;;61.97;29.23;;;5.20;99.90;;;;;;10374999;28;20226;-81
2020/12/09 17:02:32;;;;;;;66.33;30.97;;;5.30;99.90;;;;;;10388294;28;20218;-84
2020/12/09 17:07:54;;;;;;;63.10;30.97;;;5.20;99.90;;;;;;10381347;28;20191;-83
2020/12/09 17:13:16;;;;;;;57.23;30.30;;;5.10;99.90;;;;;;10386949;28;20233;-79
2020/12/09 17:18:38;;;;;;;58.50;30.20;;;5.10;99.90;;;;;;10406479;28;20697;-82
2020/12/09 17:24:00;;;;;;;65.63;30.77;;;5.10;99.90;;;;;;10387507;28;20230;-82
2020/12/09 17:29:24;;;;;;;62.57;30.97;;;5.10;99.90;;;;;;10400583;28;20193;-82
2020/12/09 17:34:46;;;;;;;74.60;42.20;;;5.10;99.90;;;;;;10376963;28;20431;-86
2020/12/09 17:40:08;;;;;;;66.33;34.93;;;5.40;99.90;;;;;;10342328;28;20271;-85
2020/12/09 17:45:31;;;;;;;59.17;31.27;;;5.30;99.90;;;;;;10337935;28;20198;-84
2020/12/09 17:50:53;;;;;;;57.37;29.77;;;5.30;99.90;;;;;;10343086;28;20579;-87
2020/12/09 17:56:16;;;;;;;58.57;30.63;;;5.20;99.90;;;;;;10363314;28;20689;-86
2020/12/09 18:01:38;;;;;;;58.97;29.50;;;5.20;99.90;;;;;;10375518;28;20237;-86
2020/12/09 18:07:00;;;;;;;53.80;28.97;;;5.20;99.90;;;;;;10384643;28;20213;-86
2020/12/09 18:12:24;;;;;;;57.63;28.17;;;5.10;99.90;;;;;;10385119;28;20864;-86
2020/12/09 18:17:49;;;;;;;59.47;29.00;;;5.00;99.90;;;;;;10395285;28;20252;-84
2020/12/09 18:23:11;;;;;;;60.03;29.83;;;5.20;99.90;;;;;;10404034;28;20842;-84
2020/12/09 18:28:32;;;;;;;59.60;30.13;;;5.10;99.90;;;;;;10371096;28;20282;-85
2020/12/09 18:33:55;;;;;;;63.00;30.03;;;5.20;99.90;;;;;;10379144;28;20234;-83
2020/12/09 18:39:17;;;;;;;63.63;29.93;;;5.10;99.90;;;;;;10383024;28;20220;-84
2020/12/09 18:44:39;;;;;;;60.90;31.43;;;5.10;99.90;;;;;;10383101;28;20199;-84
2020/12/09 18:50:02;;;;;;;61.43;29.60;;;5.10;99.90;;;;;;10395726;28;20694;-86
2020/12/09 18:55:23;;;;;;;59.63;31.53;;;5.20;99.90;;;;;;10345842;28;20207;-87
2020/12/09 19:00:45;;;;;;;58.60;30.60;;;5.10;99.90;;;;;;10360344;28;20729;-89
2020/12/09 19:06:09;;;;;;;58.33;30.20;;;5.20;99.90;;;;;;10360060;28;20197;-90
2020/12/09 19:11:32;;;;;;;54.27;29.43;;;5.20;99.90;;;;;;10378384;28;20766;-85
2020/12/09 19:16:56;;;;;;;56.70;29.53;;;5.40;99.90;;;;;;10387650;28;20296;-84
2020/12/09 19:22:19;;;;;;;53.57;29.00;;;5.60;99.90;;;;;;10425565;28;20252;-84
2020/12/09 19:27:41;;;;;;;51.40;28.03;;;5.40;99.90;;;;;;10431155;28;20213;-83
2020/12/09 19:33:03;;;;;;;55.20;30.23;;;5.20;99.90;;;;;;10401097;28;20266;-83
2020/12/09 19:38:26;;;;;;;53.93;28.43;;;5.10;99.90;;;;;;10418265;28;20651;-83
2020/12/09 19:43:48;;;;;;;51.83;27.70;;;5.10;99.90;;;;;;10387345;28;20214;-83
2020/12/09 19:49:11;;;;;;;59.73;32.63;;;5.10;99.90;;;;;;10417524;28;20200;-86
2020/12/09 19:54:34;;;;;;;54.60;29.07;;;5.10;99.90;;;;;;10387909;28;20575;-85
2020/12/09 19:59:55;;;;;;;49.33;27.40;;;5.20;99.90;;;;;;10383907;28;20217;-85
2020/12/09 20:11:46;;;;;;;54.70;30.43;;;5.20;99.90;;;;;;10290455;28;20218;-83
2020/12/09 20:17:08;;;;;;;54.17;28.03;;;5.00;99.90;;;;;;10379741;28;20209;-80
2020/12/09 20:22:31;;;;;;;51.53;29.07;;;4.90;99.90;;;;;;10416216;28;20305;-83
2020/12/09 20:27:54;;;;;;;56.13;28.13;;;5.00;99.90;;;;;;10383930;28;20195;-80
2020/12/09 20:33:16;;;;;;;56.93;29.00;;;5.00;99.90;;;;;;10377081;28;20218;-85
2020/12/09 20:38:40;;;;;;;65.75;41.55;;;5.00;99.90;;;;;;10380224;28;20426;-83
2020/12/09 20:44:05;;;;;;;54.20;28.87;;;5.30;99.90;;;;;;10378143;28;20262;-85
2020/12/09 20:49:27;;;;;;;54.70;28.43;;;5.20;99.90;;;;;;10386580;28;20236;-84
2020/12/09 20:54:49;;;;;;;56.63;29.93;;;5.10;99.90;;;;;;10364963;28;20246;-85
2020/12/09 21:00:12;;;;;;;49.07;29.13;;;5.10;99.90;;;;;;10370743;28;20895;-86
2020/12/09 21:05:33;;;;;;;54.90;29.43;;;5.10;99.90;;;;;;10378846;28;20198;-84
2020/12/09 21:10:55;;;;;;;53.70;27.30;;;5.00;99.90;;;;;;10376768;28;20206;-86
2020/12/09 21:16:19;;;;;;;58.07;30.20;;;5.10;99.90;;;;;;10379416;28;20253;-86
2020/12/09 21:21:41;;;;;;;51.60;27.47;;;5.20;99.90;;;;;;10341989;28;20302;-87
2020/12/09 21:27:04;;;;;;;59.00;29.13;;;5.00;99.90;;;;;;10354891;28;20195;-85
2020/12/09 21:32:32;;;;;;;57.13;28.50;;;5.00;99.90;;;;;;10382289;28;20222;-84
2020/12/09 21:37:54;;;;;;;56.73;29.57;;;5.00;99.90;;;;;;10387971;28;20290;-84
2020/12/09 21:43:16;;;;;;;56.83;29.40;;;4.90;99.90;;;;;;10356161;28;20222;-84
2020/12/09 21:48:38;;;;;;;55.47;28.00;;;4.90;99.90;;;;;;10368586;28;20250;-86
2020/12/09 21:54:01;;;;;;;52.97;28.30;;;5.00;99.90;;;;;;10355883;28;20223;-83
2020/12/09 21:59:22;;;;;;;52.93;27.93;;;4.90;99.90;;;;;;10363551;28;20191;-84
2020/12/09 22:04:45;;;;;;;61.27;30.23;;;4.80;99.90;;;;;;10368872;28;20214;-83
2020/12/09 22:10:07;;;;;;;59.10;28.90;;;5.00;99.90;;;;;;10362474;28;20233;-81
2020/12/09 22:15:29;;;;;;;59.23;29.33;;;5.20;99.90;;;;;;10348352;28;20205;-84
2020/12/09 22:20:51;;;;;;;55.47;28.23;;;5.20;99.90;;;;;;10375136;28;20225;-84
2020/12/09 22:26:15;;;;;;;54.77;29.50;;;4.90;99.90;;;;;;10353912;28;20218;-85
2020/12/09 22:31:36;;;;;;;55.63;28.23;;;5.10;99.90;;;;;;10379822;28;20222;-85
2020/12/09 22:36:59;;;;;;;55.73;27.23;;;5.00;99.90;;;;;;10389294;28;20229;-85
2020/12/09 22:42:20;;;;;;;55.87;27.77;;;4.90;99.90;;;;;;10369391;28;20214;-85
2020/12/09 22:47:42;;;;;;;54.40;28.20;;;5.00;99.90;;;;;;10368691;28;20197;-85
2020/12/09 22:53:04;;;;;;;54.90;27.73;;;5.00;99.90;;;;;;10374299;28;20222;-85
2020/12/09 22:58:26;;;;;;;56.83;28.50;;;4.80;99.90;;;;;;10385683;28;20588;-86
2020/12/09 23:03:49;;;;;;;59.90;30.10;;;4.90;99.90;;;;;;10384173;28;20230;-86
2020/12/09 23:09:12;;;;;;;57.27;28.33;;;5.00;99.90;;;;;;10369021;28;20191;-86
2020/12/09 23:14:33;;;;;;;57.63;29.83;;;5.10;99.90;;;;;;10343877;28;20210;-88
2020/12/09 23:19:55;;;;;;;58.57;30.03;;;5.20;99.90;;;;;;10399946;28;20221;-87
2020/12/09 23:25:18;;;;;;;62.80;30.43;;;5.10;99.90;;;;;;10422771;28;20674;-86
2020/12/09 23:30:41;;;;;;;61.70;29.73;;;5.00;99.90;;;;;;10407423;28;20253;-86
2020/12/09 23:36:03;;;;;;;59.17;28.67;;;5.00;99.90;;;;;;10377337;28;20685;-86
2020/12/09 23:41:26;;;;;;;69.63;31.63;;;5.10;99.90;;;;;;10341001;28;20230;-87
2020/12/09 23:46:52;;;;;;;66.17;31.20;;;5.10;99.90;;;;;;10342398;28;20888;-86
2020/12/09 23:52:13;;;;;;;69.63;31.63;;;5.30;99.90;;;;;;10382768;28;20400;-87
2020/12/09 23:57:36;;;;;;;87.67;34.70;;;5.40;99.90;;;;;;10379811;28;20218;-87
